Time;durP1;ratioP1;P1;durP2;ratioP2;P2;SDS_P1;SDS_P2;PMS_P1;PMS_P2;Temp;Humidity;BMP_temperature;BMP_pressure;BME280_temperature;BME280_humidity;BME280_pressure;Samples;Min_cycle;Max_cycle;Signal;HPM_P1;HPM_P2
2024/01/15 00:00:01;;;;;;;;;41.60;34.80;;;;;1.98;64.83;100945.34;2009097;28;3615832;-72
2024/01/15 00:01:13;;;;;;;;;47.40;38.00;;;;;1.98;64.35;100942.75;2010089;28;3588761;-72
2024/01/15 00:02:25;;;;;;;;;37.33;30.00;;;;;1.99;64.71;100938.44;2031383;28;3603351;-72
2024/01/15 00:03:37;;;;;;;;;48.60;35.80;;;;;1.98;65.40;100945.34;2012038;28;3611649;-72
2024/01/15 00:04:49;;;;;;;;;43.20;36.40;;;;;1.98;65.11;100934.97;2007540;28;3615841;-72
2024/01/15 00:06:01;;;;;;;;;42.80;35.40;;;;;2.00;64.80;100941.03;2014395;28;3606468;-72
2024/01/15 00:07:12;;;;;;;;;40.80;34.00;;;;;2.01;64.89;100936.72;1995370;28;2871086;-72
2024/01/15 00:08:23;;;;;;;;;37.40;34.20;;;;;2.00;65.15;100935.00;2038355;28;3588784;-72
2024/01/15 00:09:35;;;;;;;;;45.80;37.00;;;;;2.01;64.68;100931.53;2036349;28;3607506;-72
2024/01/15 00:10:48;;;;;;;;;45.20;36.00;;;;;2.04;65.71;100935.88;2012216;28;3620006;-72
2024/01/15 00:12:00;;;;;;;;;45.60;35.00;;;;;2.04;65.34;100935.88;2009158;28;3614823;-72
2024/01/15 00:13:11;;;;;;;;;39.40;33.80;;;;;2.05;65.59;100932.44;2002429;28;3600215;-72
2024/01/15 00:14:24;;;;;;;;;40.00;33.86;;;;;2.06;65.06;100924.66;2008865;28;3587729;-72
2024/01/15 00:15:36;;;;;;;;;35.00;29.00;;;;;2.07;64.96;100922.94;2006769;28;3603373;-72
2024/01/15 00:16:51;;;;;;;;;42.20;29.40;;;;;2.08;65.43;100916.88;2010663;28;3615852;-72
2024/01/15 00:18:02;;;;;;;;;35.33;29.00;;;;;2.10;64.90;100912.56;1991983;28;3607515;-72
2024/01/15 00:19:14;;;;;;;;;40.80;34.00;;;;;2.09;65.12;100908.25;2007104;28;3605391;-72
2024/01/15 00:20:26;;;;;;;;;46.40;36.40;;;;;2.09;64.50;100909.13;2014428;28;3600180;-72
2024/01/15 00:21:37;;;;;;;;;29.50;27.00;;;;;2.09;64.69;100903.94;2021879;28;1846127;-72
2024/01/15 00:22:48;;;;;;;;;43.50;37.00;;;;;2.09;65.08;100903.06;1988058;28;2858640;-72
2024/01/15 00:24:00;;;;;;;;;41.67;33.00;;;;;2.08;64.95;100897.00;2007261;28;3608540;-72
2024/01/15 00:25:11;;;;;;;;;44.40;36.00;;;;;2.09;64.75;100901.34;1992941;28;2877926;-72
2024/01/15 00:26:23;;;;;;;;;50.33;35.00;;;;;2.09;65.22;100896.16;2032718;28;3618970;-72
2024/01/15 00:27:35;;;;;;;;;43.40;36.60;;;;;2.10;64.77;100899.63;2013353;28;3608929;-72
2024/01/15 00:28:47;;;;;;;;;43.60;36.00;;;;;2.10;64.61;100897.03;2011346;28;3605405;-72
2024/01/15 00:29:59;;;;;;;;;44.00;34.67;;;;;2.10;65.28;100899.63;2004673;28;3617971;-72
2024/01/15 00:31:10;;;;;;;;;42.33;36.33;;;;;2.10;65.39;100903.03;1998603;28;3620122;-72
2024/01/15 00:32:21;;;;;;;;;43.00;36.60;;;;;2.11;64.95;100899.59;1994959;28;2873209;-72
2024/01/15 00:33:33;;;;;;;;;40.33;35.00;;;;;2.13;65.25;100889.22;2033326;28;3594990;-72
2024/01/15 00:34:45;;;;;;;;;39.80;31.40;;;;;2.14;65.21;100890.97;2034596;28;3585981;-72
2024/01/15 00:35:57;;;;;;;;;38.67;30.33;;;;;2.14;65.22;100893.56;2004826;28;3605447;-72
2024/01/15 00:37:09;;;;;;;;;38.60;33.60;;;;;2.16;65.51;100896.16;2031204;28;3599158;-72
2024/01/15 00:38:21;;;;;;;;;33.60;27.40;;;;;2.14;65.26;100893.56;2014270;28;3600606;-72
2024/01/15 00:39:33;;;;;;;;;43.00;33.60;;;;;2.16;64.87;100893.56;1994150;28;2873221;-72
2024/01/15 00:40:44;;;;;;;;;41.33;34.33;;;;;2.16;65.14;100886.66;2021362;28;3593942;-72
2024/01/15 00:41:56;;;;;;;;;40.00;33.00;;;;;2.17;65.40;100890.13;2009384;28;3591893;-72
2024/01/15 00:43:08;;;;;;;;;45.33;35.33;;;;;2.16;65.41;100883.19;2029671;28;3614825;-72
2024/01/15 00:44:20;;;;;;;;;38.67;32.67;;;;;2.17;64.96;100884.94;2011068;28;3598243;-73
2024/01/15 00:45:32;;;;;;;;;36.00;28.67;;;;;2.16;65.44;100889.25;2007677;28;3579427;-72
2024/01/15 00:46:45;;;;;;;;;36.33;27.33;;;;;2.18;65.19;100890.13;2032294;28;2857623;-72
2024/01/15 00:47:56;;;;;;;;;42.67;33.67;;;;;2.17;65.38;100887.53;2013810;28;3576250;-72
2024/01/15 00:49:08;;;;;;;;;35.33;31.67;;;;;2.17;64.82;100880.63;2006589;28;3587748;-72
2024/01/15 00:50:20;;;;;;;;;38.00;31.67;;;;;2.17;65.07;100877.16;2024565;28;3569057;-72
2024/01/15 00:51:32;;;;;;;;;38.67;31.67;;;;;2.17;65.45;100872.84;2030932;28;3588816;-72
2024/01/15 00:52:44;;;;;;;;;41.60;35.40;;;;;2.16;65.13;100863.31;2027423;28;3595012;-72
2024/01/15 00:53:57;;;;;;;;;36.71;30.14;;;;;2.17;65.43;100865.06;2025595;28;3620029;-72
2024/01/15 00:55:09;;;;;;;;;33.67;28.67;;;;;2.18;64.85;100865.91;2007994;28;3582578;-72
2024/01/15 00:56:21;;;;;;;;;37.67;26.33;;;;;2.18;65.53;100860.72;2030816;28;3596076;-72
2024/01/15 00:57:34;;;;;;;;;36.86;31.29;;;;;2.19;65.03;100865.94;2031498;28;3604405;-72
2024/01/15 00:58:46;;;;;;;;;33.00;28.00;;;;;2.19;64.78;100868.53;2004286;28;3576288;-72
2024/01/15 00:59:58;;;;;;;;;32.67;27.67;;;;;2.19;65.44;100871.13;2032434;28;3599197;-72
2024/01/15 01:01:09;;;;;;;;;37.00;31.33;;;;;2.19;65.03;100870.25;2003300;28;3597121;-72
2024/01/15 01:02:21;;;;;;;;;31.33;28.00;;;;;2.17;65.32;100867.66;2006535;28;3589823;-72
2024/01/15 01:03:33;;;;;;;;;33.33;29.00;;;;;2.17;65.15;100870.25;2029500;28;3596175;-72
2024/01/15 01:04:44;;;;;;;;;32.25;27.00;;;;;2.18;65.17;100871.09;2040803;28;1834649;-72
2024/01/15 01:05:56;;;;;;;;;35.33;26.67;;;;;2.18;65.40;100861.59;1991151;28;3599216;-72
2024/01/15 01:07:08;;;;;;;;;29.33;24.00;;;;;2.18;64.55;100864.19;2031273;28;3586698;-72
2024/01/15 01:08:20;;;;;;;;;34.00;28.33;;;;;2.17;64.85;100862.47;2030120;28;3609626;-72
2024/01/15 01:09:32;;;;;;;;;30.33;29.33;;;;;2.17;65.17;100859.00;2031689;28;3595079;-72
2024/01/15 01:10:44;;;;;;;;;35.00;28.67;;;;;2.15;64.99;100861.56;1997629;28;3597135;-72
2024/01/15 01:11:56;;;;;;;;;37.67;29.33;;;;;2.15;65.10;100855.53;2029737;28;3581490;-72
2024/01/15 01:13:09;;;;;;;;;28.80;26.80;;;;;2.14;65.07;100854.66;2033574;28;2850222;-72
2024/01/15 01:14:20;;;;;;;;;32.67;25.00;;;;;2.14;65.44;100849.47;1991571;28;3567956;-72
2024/01/15 01:15:32;;;;;;;;;33.33;30.67;;;;;2.15;65.44;100848.59;2032566;28;3604416;-72
2024/01/15 01:16:43;;;;;;;;;40.20;30.20;;;;;2.16;65.19;100847.75;1993812;28;2869025;-72
2024/01/15 01:17:55;;;;;;;;;35.33;32.33;;;;;2.18;65.18;100846.03;2031028;28;3584559;-72
2024/01/15 01:19:07;;;;;;;;;45.67;38.00;;;;;2.19;65.50;100845.19;2032613;28;3599245;-72
2024/01/15 01:20:19;;;;;;;;;38.67;29.67;;;;;2.19;65.09;100850.38;2030420;28;3601272;-72
2024/01/15 01:21:33;;;;;;;;;42.00;32.86;;;;;2.20;65.15;100841.72;2031650;28;3604425;-72
2024/01/15 01:22:44;;;;;;;;;37.67;34.67;;;;;2.21;65.64;100851.25;1990562;28;3597093;-72
2024/01/15 01:23:56;;;;;;;;;37.33;33.33;;;;;2.23;64.56;100853.81;2032030;28;3583561;-72
2024/01/15 01:25:09;;;;;;;;;36.00;32.67;;;;;2.21;65.63;100848.66;2030990;28;3576273;-72
2024/01/15 01:26:20;;;;;;;;;34.67;30.00;;;;;2.21;65.94;100851.25;2017575;28;3591934;-72
2024/01/15 01:27:31;;;;;;;;;33.50;21.25;;;;;2.21;64.83;100847.78;2014969;28;1847743;-72
2024/01/15 01:28:42;;;;;;;;;45.00;35.00;;;;;2.21;65.42;100851.25;1991519;28;2854463;-72
2024/01/15 01:29:54;;;;;;;;;40.00;35.20;;;;;2.23;64.99;100859.00;2010108;28;3609610;-72
2024/01/15 01:31:05;;;;;;;;;40.00;32.33;;;;;2.21;65.39;100851.25;2027927;28;3587751;-72
2024/01/15 01:32:17;;;;;;;;;35.50;27.50;;;;;2.21;65.03;100853.84;2030305;28;2817982;-72
2024/01/15 01:33:28;;;;;;;;;38.00;29.00;;;;;2.23;65.13;100853.81;1999073;28;3603313;-72
2024/01/15 01:34:42;;;;;;;;;42.33;37.00;;;;;2.22;65.04;100846.94;2030024;28;3579427;-72
2024/01/15 01:35:53;;;;;;;;;40.00;31.33;;;;;2.20;65.38;100846.91;2021826;28;3599217;-72
2024/01/15 01:37:07;;;;;;;;;41.29;30.43;;;;;2.20;65.49;100852.09;2037078;28;3600207;-72
2024/01/15 01:38:18;;;;;;;;;36.33;24.00;;;;;2.21;64.77;100856.44;1991787;28;3603437;-72
2024/01/15 01:39:30;;;;;;;;;34.00;27.00;;;;;2.21;65.83;100845.19;2027550;28;3597110;-72
2024/01/15 01:40:43;;;;;;;;;40.00;33.29;;;;;2.21;65.12;100851.25;2031033;28;3590883;-72
2024/01/15 01:41:55;;;;;;;;;40.33;27.33;;;;;2.21;65.01;100848.66;2005247;28;3612741;-72
2024/01/15 01:43:09;;;;;;;;;34.43;29.43;;;;;2.22;64.58;100846.94;2023603;28;3585672;-72
2024/01/15 01:44:20;;;;;;;;;35.00;32.00;;;;;2.21;65.75;100851.25;1991481;28;3607609;-72
2024/01/15 01:45:32;;;;;;;;;32.67;27.33;;;;;2.22;65.28;100850.34;2029906;28;3590856;-72
2024/01/15 01:46:44;;;;;;;;;38.33;28.33;;;;;2.22;65.58;100852.09;2030638;28;3599178;-72
2024/01/15 01:47:56;;;;;;;;;33.67;27.67;;;;;2.22;64.94;100847.75;2028991;28;2842021;-72
2024/01/15 01:49:08;;;;;;;;;34.00;28.50;;;;;2.24;65.40;100850.38;2015362;28;2858582;-72
2024/01/15 01:50:22;;;;;;;;;38.33;28.83;;;;;2.23;65.10;100849.50;2009435;28;2875433;-72
2024/01/15 01:51:36;;;;;;;;;35.67;26.00;;;;;2.23;65.15;100851.22;2011944;28;3584631;-72
2024/01/15 01:52:48;;;;;;;;;35.33;26.67;;;;;2.23;65.14;100849.50;2014695;28;3576296;-72
2024/01/15 01:54:00;;;;;;;;;32.00;27.00;;;;;2.23;65.66;100841.72;2013513;28;3572140;-72
2024/01/15 01:55:12;;;;;;;;;34.67;28.00;;;;;2.24;66.00;100840.88;2016019;28;3593317;-72
2024/01/15 01:56:24;;;;;;;;;35.33;30.00;;;;;2.26;65.26;100840.88;2014448;28;3595110;-72
2024/01/15 01:57:36;;;;;;;;;42.00;33.00;;;;;2.26;65.05;100840.88;2021771;28;3602350;-72
2024/01/15 01:58:48;;;;;;;;;38.33;28.67;;;;;2.26;65.27;100833.09;2021938;28;3601268;-72
2024/01/15 02:00:01;;;;;;;;;43.33;35.00;;;;;2.28;65.24;100835.69;2016011;28;3587835;-72
2024/01/15 02:01:12;;;;;;;;;14.33;8.33;;;;;2.29;65.75;100832.25;2013270;28;3499265;-72
2024/01/15 02:02:24;;;;;;;;;37.00;32.00;;;;;2.30;65.58;100833.94;2021289;28;3565892;-72
2024/01/15 02:03:36;;;;;;;;;37.67;30.67;;;;;2.30;64.77;100828.75;2022398;28;3597094;-72
2024/01/15 02:04:49;;;;;;;;;39.00;31.00;;;;;2.31;65.68;100830.50;2026629;28;3579387;-72
2024/01/15 02:06:01;;;;;;;;;37.33;28.67;;;;;2.31;65.20;100833.97;2014667;28;3597129;-72
2024/01/15 02:07:13;;;;;;;;;40.33;35.33;;;;;2.33;65.45;100831.38;2020344;28;3617969;-72
2024/01/15 02:08:26;;;;;;;;;37.33;27.67;;;;;2.33;65.74;100829.66;2015640;28;3602334;-72
2024/01/15 02:09:37;;;;;;;;;43.67;32.33;;;;;2.33;65.18;100828.78;2014243;28;3604406;-72
2024/01/15 02:10:49;;;;;;;;;35.67;30.33;;;;;2.34;65.64;100833.13;2006833;28;3577315;-72
2024/01/15 02:12:01;;;;;;;;;40.40;33.60;;;;;2.33;65.09;100828.78;2037046;28;3583586;-72
2024/01/15 02:13:13;;;;;;;;;45.67;35.33;;;;;2.33;65.42;100826.19;2025888;28;3610669;-72
2024/01/15 02:14:25;;;;;;;;;40.67;35.00;;;;;2.32;65.18;100820.13;2003336;28;3605471;-72
2024/01/15 02:15:37;;;;;;;;;43.33;36.67;;;;;2.32;65.37;100817.53;2030783;28;3600227;-72
2024/01/15 02:16:49;;;;;;;;;35.33;29.33;;;;;2.31;65.23;100818.41;2032823;28;3582542;-72
2024/01/15 02:18:03;;;;;;;;;37.00;32.00;;;;;2.32;64.88;100816.69;2031451;28;3598170;-72
2024/01/15 02:19:17;;;;;;;;;37.00;31.00;;;;;2.32;64.85;100811.50;2016762;28;2848225;-72
2024/01/15 02:20:29;;;;;;;;;37.67;30.67;;;;;2.32;64.88;100801.97;1990299;28;3588847;-72
2024/01/15 02:21:41;;;;;;;;;40.00;33.00;;;;;2.32;65.29;100804.56;2016565;28;3596104;-72
2024/01/15 02:22:53;;;;;;;;;41.00;29.40;;;;;2.33;65.61;100797.66;2012785;28;3610628;-72
2024/01/15 02:24:05;;;;;;;;;34.67;30.00;;;;;2.32;65.53;100795.94;1997356;28;3595044;-72
2024/01/15 02:25:16;;;;;;;;;38.67;29.00;;;;;2.33;64.85;100797.66;2023259;28;3595026;-72
2024/01/15 02:26:28;;;;;;;;;28.67;24.67;;;;;2.32;64.96;100783.81;2007078;28;3585704;-72
2024/01/15 02:27:42;;;;;;;;;40.33;28.67;;;;;2.34;65.29;100791.63;2031032;28;3629395;-72
2024/01/15 02:28:54;;;;;;;;;36.33;33.00;;;;;2.34;65.97;100794.22;1992295;28;3582531;-72
2024/01/15 02:30:07;;;;;;;;;44.40;33.40;;;;;2.33;64.56;100790.75;2023998;28;3607554;-72
2024/01/15 02:31:19;;;;;;;;;38.00;30.33;;;;;2.33;66.04;100788.16;1991181;28;3607861;-72
2024/01/15 02:32:31;;;;;;;;;39.67;32.00;;;;;2.34;65.08;100783.84;2007939;28;3613773;-72
2024/01/15 02:33:45;;;;;;;;;33.40;30.20;;;;;2.34;65.24;100783.84;2011925;28;3597082;-72
2024/01/15 02:34:57;;;;;;;;;41.33;30.33;;;;;2.36;64.93;100776.91;1990437;28;3614901;-72
2024/01/15 02:36:10;;;;;;;;;40.86;32.57;;;;;2.36;65.32;100771.72;2002437;28;3609609;-72
2024/01/15 02:37:22;;;;;;;;;39.67;34.00;;;;;2.35;65.41;100770.84;2004524;28;3591930;-72
2024/01/15 02:38:34;;;;;;;;;40.60;32.40;;;;;2.38;65.45;100754.44;2037373;28;3592908;-72
2024/01/15 02:39:46;;;;;;;;;29.67;29.00;;;;;2.38;65.35;100770.00;2009820;28;3577352;-72
2024/01/15 02:40:58;;;;;;;;;27.33;25.67;;;;;2.38;65.34;100772.59;2032569;28;3585640;-72
2024/01/15 02:42:10;;;;;;;;;33.00;24.67;;;;;2.38;65.80;100772.59;2016393;28;3604509;-72
2024/01/15 02:43:22;;;;;;;;;34.67;28.33;;;;;2.38;65.28;100764.81;2007556;28;3596430;-72
2024/01/15 02:44:34;;;;;;;;;36.00;31.00;;;;;2.38;65.68;100762.22;2009201;28;3599186;-72
2024/01/15 02:45:46;;;;;;;;;30.33;26.67;;;;;2.38;65.32;100770.00;2006727;28;3601273;-72
2024/01/15 02:46:58;;;;;;;;;32.67;29.33;;;;;2.40;65.55;100777.78;1990781;28;3587736;-72
2024/01/15 02:48:11;;;;;;;;;36.29;30.71;;;;;2.40;65.58;100768.25;2033054;28;3598163;-72
2024/01/15 02:49:23;;;;;;;;;34.67;28.67;;;;;2.40;65.20;100778.66;2010119;28;3591902;-72
2024/01/15 02:50:35;;;;;;;;;32.86;29.14;;;;;2.41;65.98;100782.97;2027574;28;3599218;-72
2024/01/15 02:51:47;;;;;;;;;35.00;31.00;;;;;2.41;65.01;100784.69;2010658;28;3598144;-72
2024/01/15 02:52:59;;;;;;;;;36.00;30.33;;;;;2.41;65.83;100789.88;2029802;28;3577810;-72
2024/01/15 02:54:12;;;;;;;;;35.29;29.71;;;;;2.39;65.80;100789.91;2031649;28;3586694;-72
2024/01/15 02:55:24;;;;;;;;;34.00;27.67;;;;;2.38;65.45;100787.28;2007610;28;3603393;-72
2024/01/15 02:56:36;;;;;;;;;35.67;32.67;;;;;2.35;65.54;100780.34;2007323;28;3591198;-72
2024/01/15 02:57:48;;;;;;;;;28.67;23.67;;;;;2.36;66.00;100782.09;2033046;28;3581832;-72
2024/01/15 02:59:00;;;;;;;;;36.00;30.00;;;;;2.38;65.26;100789.88;2032217;28;3601273;-72
2024/01/15 03:00:12;;;;;;;;;37.33;29.33;;;;;2.35;65.04;100789.00;2029412;28;3602334;-72
2024/01/15 03:01:24;;;;;;;;;31.67;28.67;;;;;2.38;66.06;100803.72;2015505;28;3585657;-72
2024/01/15 03:02:39;;;;;;;;;31.67;24.00;;;;;2.37;65.55;100794.22;2032718;28;3579439;-72
2024/01/15 03:03:50;;;;;;;;;38.00;34.00;;;;;2.36;65.22;100795.94;2014736;28;3605438;-72
2024/01/15 03:05:02;;;;;;;;;33.80;30.60;;;;;2.36;65.33;100803.72;2034120;28;3588741;-72
2024/01/15 03:06:14;;;;;;;;;34.67;28.67;;;;;2.37;65.34;100796.81;2021733;28;3590896;-72
2024/01/15 03:07:25;;;;;;;;;32.00;29.60;;;;;2.39;65.78;100797.69;2024045;28;2864824;-72
2024/01/15 03:08:37;;;;;;;;;31.00;29.33;;;;;2.39;65.61;100795.09;2034427;28;3590816;-72
2024/01/15 03:09:49;;;;;;;;;32.00;29.00;;;;;2.40;65.45;100794.22;2033518;28;3587070;-72
2024/01/15 03:11:01;;;;;;;;;30.33;27.67;;;;;2.42;65.47;100792.47;2015295;28;3588765;-72
2024/01/15 03:12:13;;;;;;;;;30.67;26.33;;;;;2.42;65.12;100792.47;2025188;28;3584649;-72
2024/01/15 03:13:24;;;;;;;;;39.33;33.67;;;;;2.43;65.52;100794.22;2024609;28;3595086;-72
2024/01/15 03:14:37;;;;;;;;;37.14;30.86;;;;;2.45;65.76;100796.81;2031948;28;3599575;-72
2024/01/15 03:15:49;;;;;;;;;34.33;27.67;;;;;2.45;65.58;100797.69;2009799;28;3588836;-72
2024/01/15 03:17:01;;;;;;;;;38.33;30.67;;;;;2.45;65.67;100791.63;2032078;28;3601277;-72
2024/01/15 03:18:13;;;;;;;;;28.33;23.67;;;;;2.45;65.28;100795.09;2006411;28;3593443;-72
2024/01/15 03:19:25;;;;;;;;;35.67;24.33;;;;;2.45;65.78;100797.69;2031381;28;3607562;-72
2024/01/15 03:20:37;;;;;;;;;37.40;29.60;;;;;2.46;65.65;100804.63;2036318;28;3589802;-72
2024/01/15 03:21:49;;;;;;;;;35.33;25.00;;;;;2.47;65.74;100793.34;2033244;28;3596072;-72
2024/01/15 03:23:01;;;;;;;;;42.33;32.00;;;;;2.47;66.12;100789.88;2032527;28;3612741;-72
2024/01/15 03:24:13;;;;;;;;;35.33;28.33;;;;;2.49;65.76;100795.09;2007136;28;3597129;-72
2024/01/15 03:25:25;;;;;;;;;36.00;26.33;;;;;2.50;65.61;100789.03;2007560;28;3613788;-72
2024/01/15 03:26:37;;;;;;;;;39.00;30.67;;;;;2.49;66.28;100788.19;2007386;28;3600604;-72
2024/01/15 03:27:49;;;;;;;;;30.67;25.33;;;;;2.51;65.26;100793.38;2032203;28;3591290;-72
2024/01/15 03:29:02;;;;;;;;;39.14;30.71;;;;;2.51;65.87;100791.66;2030856;28;3607592;-72
2024/01/15 03:30:14;;;;;;;;;37.33;27.00;;;;;2.52;65.57;100792.53;2011600;28;3607546;-72
2024/01/15 03:31:25;;;;;;;;;31.00;25.00;;;;;2.53;65.29;100794.22;2009933;28;3571097;-72
2024/01/15 03:32:38;;;;;;;;;31.43;28.57;;;;;2.53;65.83;100796.81;2032761;28;3600250;-72
2024/01/15 03:33:50;;;;;;;;;36.33;32.33;;;;;2.53;65.66;100795.09;2008437;28;3597116;-72
2024/01/15 03:35:02;;;;;;;;;40.33;30.00;;;;;2.54;65.64;100798.56;2007837;28;3622125;-72
2024/01/15 03:36:14;;;;;;;;;33.33;28.00;;;;;2.54;65.25;100795.97;2003390;28;3592967;-72
2024/01/15 03:37:26;;;;;;;;;29.33;26.67;;;;;2.54;65.51;100795.97;2032244;28;3588801;-72
2024/01/15 03:38:42;;;;;;;;;29.67;24.67;;;;;2.54;65.51;100791.66;2030928;28;3584607;-72
2024/01/15 03:39:53;;;;;;;;;32.67;27.00;;;;;2.55;65.90;100797.69;2012474;28;3588820;-72
2024/01/15 03:41:05;;;;;;;;;32.80;25.40;;;;;2.55;65.67;100802.88;2041334;28;1838558;-72
2024/01/15 03:42:16;;;;;;;;;30.33;25.67;;;;;2.54;66.17;100802.03;2014969;28;3587783;-72
2024/01/15 03:43:28;;;;;;;;;30.00;24.33;;;;;2.55;65.32;100803.75;2030806;28;3564867;-72
2024/01/15 03:44:40;;;;;;;;;30.67;24.67;;;;;2.56;66.10;100809.81;2030931;28;2829507;-72
2024/01/15 03:45:51;;;;;;;;;32.00;26.00;;;;;2.57;65.58;100807.22;2015234;28;2841033;-72
2024/01/15 03:47:04;;;;;;;;;37.33;29.67;;;;;2.58;65.89;100808.09;2012678;28;3592963;-72
2024/01/15 03:48:14;;;;;;;;;25.00;25.00;;;;;2.58;66.08;100808.09;2015853;28;2832582;-72
2024/01/15 03:49:26;;;;;;;;;29.00;24.67;;;;;2.59;66.33;100802.03;2030655;28;3589828;-72
2024/01/15 03:50:38;;;;;;;;;25.00;23.00;;;;;2.58;65.37;100802.91;2030903;28;3578349;-72
2024/01/15 03:51:50;;;;;;;;;35.00;29.67;;;;;2.57;64.89;100794.25;2031846;28;3607513;-72
2024/01/15 03:53:02;;;;;;;;;35.00;27.40;;;;;2.58;65.39;100798.56;2035530;28;3582570;-72
2024/01/15 03:54:14;;;;;;;;;35.00;29.33;;;;;2.60;66.03;100790.78;2032051;28;3604747;-72
2024/01/15 03:55:26;;;;;;;;;34.67;27.67;;;;;2.59;65.22;100784.72;2032947;28;3600269;-72
2024/01/15 03:56:38;;;;;;;;;34.67;30.33;;;;;2.60;65.37;100801.16;2029964;28;3593973;-72
2024/01/15 03:57:49;;;;;;;;;39.00;29.00;;;;;2.61;65.52;100800.31;2032158;28;3605462;-72
2024/01/15 03:59:02;;;;;;;;;32.43;32.29;;;;;2.59;65.76;100789.06;2030171;28;3591895;-72
2024/01/15 04:00:17;;;;;;;;;34.67;30.00;;;;;2.61;65.79;100789.94;2006428;28;3605523;-72
2024/01/15 04:01:29;;;;;;;;;35.33;29.67;;;;;2.61;65.73;100791.66;2018713;28;3597157;-72
2024/01/15 04:02:40;;;;;;;;;29.00;26.67;;;;;2.62;65.46;100794.25;2021040;28;3589823;-72
2024/01/15 04:03:52;;;;;;;;;38.00;27.00;;;;;2.62;65.47;100789.03;2031902;28;3607581;-72
2024/01/15 04:05:05;;;;;;;;;27.33;24.00;;;;;2.63;66.29;100784.72;2001251;28;3583600;-72
2024/01/15 04:06:16;;;;;;;;;31.00;27.67;;;;;2.64;65.56;100782.13;2017986;28;3594539;-72
2024/01/15 04:07:28;;;;;;;;;28.67;22.67;;;;;2.64;65.81;100779.53;2032315;28;3568437;-72
2024/01/15 04:08:40;;;;;;;;;27.67;23.33;;;;;2.65;66.42;100773.50;2029855;28;3580813;-72
2024/01/15 04:09:52;;;;;;;;;36.67;29.00;;;;;2.66;65.82;100774.34;2030119;28;3595034;-72
2024/01/15 04:11:04;;;;;;;;;31.00;24.67;;;;;2.66;66.06;100769.16;2030644;28;3599201;-72
2024/01/15 04:12:16;;;;;;;;;42.80;30.00;;;;;2.66;65.93;100758.78;2036893;28;3603346;-72
2024/01/15 04:13:27;;;;;;;;;19.50;16.00;;;;;2.66;66.25;100762.25;2008559;28;2813796;-72
2024/01/15 04:14:39;;;;;;;;;33.67;27.67;;;;;2.66;66.12;100761.38;1998454;28;3593938;-72
2024/01/15 04:15:50;;;;;;;;;35.20;24.20;;;;;2.66;65.99;100753.59;2019848;28;2871054;-72
2024/01/15 04:17:02;;;;;;;;;39.67;28.00;;;;;2.66;66.23;100754.47;2032854;28;3602279;-72
2024/01/15 04:18:16;;;;;;;;;24.67;18.67;;;;;2.66;66.38;100754.47;2003895;28;2827513;-72
2024/01/15 04:19:27;;;;;;;;;34.67;29.00;;;;;2.67;66.85;100753.59;2014548;28;3604865;-72
2024/01/15 04:20:39;;;;;;;;;29.67;24.00;;;;;2.66;66.54;100751.88;2006306;28;3577805;-72
2024/01/15 04:21:51;;;;;;;;;28.00;24.67;;;;;2.67;65.95;100748.38;2029666;28;3584671;-72
2024/01/15 04:23:03;;;;;;;;;36.40;26.80;;;;;2.66;66.25;100759.66;2035242;28;3592916;-72
2024/01/15 04:24:17;;;;;;;;;26.67;21.67;;;;;2.67;66.81;100748.38;2002262;28;3575263;-72
2024/01/15 04:25:29;;;;;;;;;32.00;26.00;;;;;2.67;66.81;100745.78;2015808;28;3595019;-72
2024/01/15 04:26:42;;;;;;;;;31.86;25.29;;;;;2.67;66.60;100748.38;2031046;28;3587728;-72
2024/01/15 04:27:56;;;;;;;;;26.33;21.33;;;;;2.68;67.44;100744.06;2020797;28;1833636;-72
2024/01/15 04:29:07;;;;;;;;;26.00;23.67;;;;;2.68;66.32;100741.47;1989648;28;3586702;-72
2024/01/15 04:30:19;;;;;;;;;31.00;25.00;;;;;2.68;66.41;100750.13;2031237;28;3602319;-72
2024/01/15 04:31:31;;;;;;;;;33.67;30.33;;;;;2.69;66.44;100744.06;2030649;28;3586017;-72
2024/01/15 04:32:43;;;;;;;;;24.67;22.00;;;;;2.69;66.60;100733.69;2030564;28;3579438;-72
2024/01/15 04:33:55;;;;;;;;;31.00;26.00;;;;;2.69;67.21;100738.03;2031628;28;3595030;-72
2024/01/15 04:35:07;;;;;;;;;29.33;25.33;;;;;2.70;67.13;100742.34;2032000;28;3587752;-72
2024/01/15 04:36:19;;;;;;;;;38.33;26.67;;;;;2.67;67.14;100740.59;2016492;28;3610695;-72
2024/01/15 04:37:31;;;;;;;;;36.80;32.00;;;;;2.69;66.81;100740.63;2027576;28;3610954;-72
2024/01/15 04:38:43;;;;;;;;;34.33;28.33;;;;;2.67;66.67;100732.81;2005309;28;3596156;-72
2024/01/15 04:39:55;;;;;;;;;40.00;31.67;;;;;2.67;66.67;100734.53;2026902;28;3614376;-72
2024/01/15 04:41:06;;;;;;;;;22.00;19.50;;;;;2.65;66.51;100726.78;2004786;28;2821215;-72
2024/01/15 04:42:18;;;;;;;;;31.33;27.67;;;;;2.64;66.48;100727.63;1993489;28;3587707;-72
2024/01/15 04:43:30;;;;;;;;;29.71;26.00;;;;;2.63;67.01;100727.63;2033062;28;3577339;-72
2024/01/15 04:44:43;;;;;;;;;35.71;30.14;;;;;2.62;66.21;100729.34;2007398;28;3600254;-72
2024/01/15 04:45:55;;;;;;;;;35.00;32.00;;;;;2.62;66.11;100729.34;2008537;28;3602334;-72
2024/01/15 04:47:07;;;;;;;;;42.40;31.60;;;;;2.61;66.76;100732.84;2011298;28;3618968;-72
2024/01/15 04:48:19;;;;;;;;;33.67;28.67;;;;;2.60;67.03;100728.50;2007347;28;3597168;-72
2024/01/15 04:49:31;;;;;;;;;33.80;31.00;;;;;2.60;66.87;100725.91;2031372;28;3593941;-72
2024/01/15 04:50:43;;;;;;;;;36.60;31.60;;;;;2.60;66.84;100733.69;2007285;28;3605404;-72
2024/01/15 04:51:55;;;;;;;;;29.00;26.00;;;;;2.61;66.67;100727.66;2006443;28;3585652;-72
2024/01/15 04:53:06;;;;;;;;;25.00;16.00;;;;;2.61;66.45;100729.38;2028819;28;2821134;-72
2024/01/15 04:54:18;;;;;;;;;30.00;26.00;;;;;2.60;67.10;100731.09;2007667;28;3599147;-72
2024/01/15 04:55:30;;;;;;;;;25.67;22.33;;;;;2.61;66.94;100732.84;2001138;28;3569065;-72
2024/01/15 04:56:42;;;;;;;;;38.00;32.00;;;;;2.63;66.77;100723.31;2035868;28;3590813;-72
2024/01/15 04:57:55;;;;;;;;;35.86;31.00;;;;;2.63;67.11;100723.31;2032358;28;3603372;-72
2024/01/15 04:59:07;;;;;;;;;35.00;32.00;;;;;2.64;66.80;100725.03;2008707;28;3592300;-72
2024/01/15 05:00:19;;;;;;;;;32.33;26.33;;;;;2.65;67.33;100725.91;2032503;28;3597111;-72
2024/01/15 05:01:32;;;;;;;;;26.67;24.33;;;;;2.66;66.80;100723.31;2018805;28;3570083;-72
2024/01/15 05:02:43;;;;;;;;;32.00;28.67;;;;;2.67;67.17;100725.03;2016034;28;3596076;-72
2024/01/15 05:03:55;;;;;;;;;26.40;23.80;;;;;2.67;67.21;100722.44;2012703;28;3576242;-72
2024/01/15 05:05:07;;;;;;;;;35.67;26.00;;;;;2.69;67.39;100718.09;2033272;28;3608607;-72
2024/01/15 05:06:19;;;;;;;;;25.67;22.00;;;;;2.69;67.07;100718.09;2003718;28;3561711;-72
2024/01/15 05:07:31;;;;;;;;;32.00;29.20;;;;;2.69;66.88;100719.84;2036086;28;3609593;-72
2024/01/15 05:08:43;;;;;;;;;28.00;26.00;;;;;2.69;67.35;100718.09;2005974;28;3600637;-72
2024/01/15 05:09:54;;;;;;;;;23.00;19.00;;;;;2.67;66.88;100719.84;2032348;28;2818029;-72
2024/01/15 05:11:06;;;;;;;;;31.33;25.00;;;;;2.70;66.98;100718.97;2010009;28;3589790;-72
2024/01/15 05:12:18;;;;;;;;;29.00;25.33;;;;;2.69;67.01;100720.69;2029063;28;3597158;-72
2024/01/15 05:13:30;;;;;;;;;30.33;27.67;;;;;2.70;67.12;100718.97;2031334;28;3590849;-72
2024/01/15 05:14:42;;;;;;;;;30.67;28.67;;;;;2.70;67.40;100725.03;2029936;28;3587731;-72
2024/01/15 05:15:54;;;;;;;;;31.67;29.00;;;;;2.70;67.10;100719.84;2026881;28;3597197;-72
2024/01/15 05:17:05;;;;;;;;;25.00;22.33;;;;;2.71;67.71;100725.91;2029157;28;3580465;-72
2024/01/15 05:18:17;;;;;;;;;37.67;29.33;;;;;2.70;67.16;100730.22;2031908;28;3619460;-72
2024/01/15 05:19:29;;;;;;;;;32.33;27.67;;;;;2.72;67.45;100721.59;2006689;28;3590872;-72
2024/01/15 05:20:42;;;;;;;;;38.33;30.00;;;;;2.70;67.63;100717.25;2031377;28;3596072;-72
2024/01/15 05:21:53;;;;;;;;;22.33;19.00;;;;;2.72;68.08;100716.41;2017684;28;2831573;-72
2024/01/15 05:23:06;;;;;;;;;31.00;25.67;;;;;2.70;67.42;100719.84;2043296;28;1839938;-72